createdAt,value
2023-04-17T00:02:16.190Z,27.23
2023-04-17T00:04:43.917Z,22.27
2023-04-17T00:07:11.575Z,22.60
2023-04-17T00:09:38.879Z,24.77
2023-04-17T00:12:06.463Z,28.53
2023-04-17T00:14:34.034Z,27.00
2023-04-17T00:17:01.314Z,31.63
2023-04-17T00:19:28.603Z,34.77
2023-04-17T00:21:56.013Z,33.97
2023-04-17T00:24:23.265Z,30.63
2023-04-17T00:26:50.591Z,18.70
2023-04-17T00:29:17.799Z,11.97
2023-04-17T00:31:45.214Z,8.50
2023-04-17T00:34:12.479Z,7.50
2023-04-17T00:36:40.296Z,7.20
2023-04-17T00:39:07.661Z,7.13
2023-04-17T00:41:35.074Z,7.57
2023-04-17T00:44:02.416Z,7.67
2023-04-17T00:46:30.050Z,8.63
2023-04-17T00:48:57.357Z,8.00
2023-04-17T00:51:24.730Z,9.40
2023-04-17T00:53:52.473Z,9.13
2023-04-17T00:56:19.986Z,11.40
2023-04-17T00:58:51.408Z,10.90
2023-04-17T01:01:18.954Z,11.80
2023-04-17T01:03:46.824Z,10.03
2023-04-17T01:06:14.386Z,11.23
2023-04-17T01:08:43.639Z,10.60
2023-04-17T01:11:11.832Z,8.77
2023-04-17T01:13:49.512Z,8.60
2023-04-17T01:16:17.756Z,8.87
2023-04-17T01:18:45.159Z,9.93
2023-04-17T01:21:12.468Z,10.60
2023-04-17T01:23:53.408Z,10.33
2023-04-17T01:26:24.677Z,11.03
2023-04-17T01:28:58.369Z,11.00
2023-04-17T01:31:27.836Z,11.23
2023-04-17T01:33:55.244Z,11.13
2023-04-17T01:36:22.642Z,10.93
2023-04-17T01:38:49.911Z,12.50
2023-04-17T01:41:17.279Z,10.93
2023-04-17T01:43:46.657Z,10.67
2023-04-17T01:46:14.267Z,10.77
2023-04-17T01:48:41.813Z,12.17
2023-04-17T01:51:09.107Z,10.90
2023-04-17T01:53:38.385Z,11.17
2023-04-17T01:56:06.054Z,11.20
2023-04-17T01:58:33.397Z,10.07
2023-04-17T02:01:00.876Z,9.87
2023-04-17T02:03:28.371Z,10.30
2023-04-17T02:05:56.042Z,10.27
2023-04-17T02:08:23.457Z,10.07
2023-04-17T02:10:50.787Z,11.27
2023-04-17T02:13:18.118Z,9.90
2023-04-17T02:15:45.418Z,11.20
2023-04-17T02:18:12.779Z,10.87
2023-04-17T02:20:40.444Z,11.23
2023-04-17T02:23:08.188Z,13.53
2023-04-17T02:25:35.797Z,14.60
2023-04-17T02:28:03.048Z,13.63
2023-04-17T02:30:30.620Z,13.10
2023-04-17T02:32:58.617Z,12.83
2023-04-17T02:35:28.683Z,13.73
2023-04-17T02:37:55.958Z,15.40
2023-04-17T02:40:23.675Z,15.20
2023-04-17T02:42:50.965Z,15.43
2023-04-17T02:45:18.232Z,16.27
2023-04-17T02:47:45.551Z,17.23
2023-04-17T02:50:15.757Z,16.07
2023-04-17T02:52:43.333Z,16.37
2023-04-17T02:55:10.768Z,16.40
2023-04-17T02:57:38.068Z,14.83
2023-04-17T03:00:08.455Z,14.67
2023-04-17T03:02:36.768Z,13.70
2023-04-17T03:05:04.467Z,11.43
2023-04-17T03:07:31.795Z,11.63
2023-04-17T03:09:59.338Z,9.63
2023-04-17T03:12:26.616Z,8.70
2023-04-17T03:14:53.930Z,8.43
2023-04-17T03:17:21.342Z,8.57
2023-04-17T03:19:48.706Z,11.33
2023-04-17T03:22:15.993Z,12.83
2023-04-17T03:24:43.338Z,11.73
2023-04-17T03:27:10.632Z,13.07
2023-04-17T03:29:38.035Z,11.10
2023-04-17T03:32:05.647Z,12.53
2023-04-17T03:34:33.255Z,15.03
2023-04-17T03:37:00.496Z,19.27
2023-04-17T03:39:27.816Z,18.90
2023-04-17T03:41:55.122Z,20.53
2023-04-17T03:44:22.414Z,23.57
2023-04-17T03:46:49.677Z,22.17
2023-04-17T03:49:17.050Z,21.97
2023-04-17T03:51:44.584Z,20.53
2023-04-17T03:54:11.835Z,20.70
2023-04-17T03:56:39.108Z,23.13
2023-04-17T03:59:06.559Z,21.60
2023-04-17T04:01:33.826Z,20.47
2023-04-17T04:04:02.153Z,19.77
2023-04-17T04:06:30.177Z,20.23
2023-04-17T04:08:57.621Z,20.63
2023-04-17T04:11:25.043Z,22.27
2023-04-17T04:13:52.433Z,21.73
2023-04-17T04:16:19.936Z,16.53
2023-04-17T04:18:47.346Z,12.13
2023-04-17T04:21:14.683Z,10.73
2023-04-17T04:23:43.154Z,11.97
2023-04-17T04:26:12.068Z,13.60
2023-04-17T04:28:39.450Z,13.97
2023-04-17T04:31:07.266Z,15.90
2023-04-17T04:33:34.515Z,20.07
2023-04-17T04:36:02.063Z,70.30
2023-04-17T04:38:33.201Z,77.43
2023-04-17T04:41:06.625Z,32.83
2023-04-17T04:43:34.379Z,19.43
2023-04-17T04:46:01.844Z,18.40
2023-04-17T04:48:29.292Z,18.57
2023-04-17T04:50:56.976Z,17.07
2023-04-17T04:53:24.942Z,18.77
2023-04-17T04:55:52.181Z,15.70
2023-04-17T04:58:19.427Z,14.80
2023-04-17T05:00:47.061Z,14.20
2023-04-17T05:03:14.683Z,14.87
2023-04-17T05:05:43.780Z,15.57
2023-04-17T05:08:11.094Z,17.30
2023-04-17T05:10:38.533Z,17.00
2023-04-17T05:13:05.916Z,17.80
2023-04-17T05:15:33.152Z,18.63
2023-04-17T05:18:00.679Z,19.33
2023-04-17T05:20:27.969Z,20.27
2023-04-17T05:22:55.256Z,20.60
2023-04-17T05:25:22.898Z,21.90
2023-04-17T05:27:50.454Z,21.47
2023-04-17T05:30:17.802Z,33.27
2023-04-17T05:32:45.248Z,27.93
2023-04-17T05:35:12.529Z,27.57
2023-04-17T05:37:39.847Z,34.93
2023-04-17T05:40:09.299Z,31.53
2023-04-17T05:42:36.722Z,31.07
2023-04-17T05:45:05.156Z,30.30
2023-04-17T05:47:32.617Z,31.47
2023-04-17T05:50:00.333Z,30.77
2023-04-17T05:52:27.722Z,30.00
2023-04-17T05:54:55.028Z,29.33
2023-04-17T05:57:22.242Z,30.67
2023-04-17T05:59:49.519Z,28.90
2023-04-17T06:02:17.478Z,44.60
2023-04-17T06:04:45.545Z,48.50
2023-04-17T06:07:13.118Z,31.17
2023-04-17T06:09:41.614Z,29.37
2023-04-17T06:12:16.114Z,33.60
2023-04-17T06:14:44.131Z,30.47
2023-04-17T06:17:12.770Z,30.60
2023-04-17T06:19:40.067Z,29.10
2023-04-17T06:22:07.350Z,29.20
2023-04-17T06:24:34.671Z,28.33
2023-04-17T06:27:02.412Z,29.10
2023-04-17T06:29:30.090Z,30.97
2023-04-17T06:31:57.316Z,28.27
2023-04-17T06:34:24.689Z,30.37
2023-04-17T06:36:52.055Z,31.03
2023-04-17T06:39:19.284Z,32.10
2023-04-17T06:41:46.546Z,31.23
2023-04-17T06:44:14.485Z,29.67
2023-04-17T06:46:41.914Z,31.73
2023-04-17T06:49:09.418Z,31.23
2023-04-17T06:51:36.834Z,31.63
2023-04-17T06:54:04.329Z,32.27
2023-04-17T06:56:31.550Z,32.67
2023-04-17T06:58:59.834Z,31.53
2023-04-17T07:01:29.929Z,31.80
2023-04-17T07:03:57.673Z,31.10
2023-04-17T07:06:24.914Z,30.90
2023-04-17T07:08:53.533Z,31.13
2023-04-17T07:11:22.872Z,29.03
2023-04-17T07:13:52.096Z,30.23
2023-04-17T07:16:19.398Z,31.97
2023-04-17T07:18:46.730Z,31.57
2023-04-17T07:21:14.098Z,32.27
2023-04-17T07:23:42.053Z,31.43
2023-04-17T07:26:10.741Z,30.90
2023-04-17T07:28:41.241Z,31.17
2023-04-17T07:31:08.973Z,31.47
2023-04-17T07:33:40.028Z,31.80
2023-04-17T07:36:11.459Z,30.73
2023-04-17T07:38:42.338Z,33.53
2023-04-17T07:41:09.853Z,32.10
2023-04-17T07:43:37.087Z,30.90
2023-04-17T07:46:04.480Z,30.30
2023-04-17T07:48:32.296Z,29.83
2023-04-17T07:51:02.663Z,30.87
2023-04-17T07:53:30.346Z,30.40
2023-04-17T07:55:58.715Z,30.50
2023-04-17T07:58:27.316Z,30.70
2023-04-17T08:00:54.908Z,30.37
2023-04-17T08:03:22.506Z,31.03
2023-04-17T08:05:52.286Z,30.33
2023-04-17T08:08:20.402Z,30.13
2023-04-17T08:10:47.672Z,29.70
2023-04-17T08:13:15.008Z,28.17
2023-04-17T08:15:42.589Z,29.20
2023-04-17T08:18:10.818Z,29.47
2023-04-17T08:20:38.108Z,28.03
2023-04-17T08:23:06.377Z,27.83
2023-04-17T08:25:33.674Z,27.97
2023-04-17T08:28:01.091Z,28.03
2023-04-17T08:30:31.668Z,27.47
2023-04-17T08:32:58.950Z,26.17
2023-04-17T08:35:27.038Z,25.57
2023-04-17T08:37:59.017Z,24.97
2023-04-17T08:40:26.673Z,25.37
2023-04-17T08:42:55.201Z,26.10
2023-04-17T08:45:27.204Z,25.80
2023-04-17T08:47:54.601Z,25.87
2023-04-17T08:50:22.307Z,24.73
2023-04-17T08:52:52.953Z,27.30
2023-04-17T08:55:22.618Z,29.30
2023-04-17T08:57:59.122Z,31.17
2023-04-17T09:00:31.642Z,24.47
2023-04-17T09:03:01.082Z,23.90
2023-04-17T09:05:38.740Z,25.83
2023-04-17T09:08:17.254Z,28.73
2023-04-17T09:10:47.033Z,25.87
2023-04-17T09:13:18.429Z,25.63
2023-04-17T09:15:47.408Z,25.47
2023-04-17T09:18:31.729Z,24.93
2023-04-17T09:21:01.068Z,41.13
2023-04-17T09:23:30.222Z,27.90
2023-04-17T09:26:07.422Z,23.60
2023-04-17T09:28:39.829Z,31.90
2023-04-17T09:31:19.279Z,28.43
2023-04-17T09:33:59.836Z,26.93
2023-04-17T09:36:30.924Z,25.73
2023-04-17T09:39:02.396Z,24.67
2023-04-17T09:41:33.547Z,23.83
2023-04-17T09:44:02.424Z,22.40
2023-04-17T09:46:33.544Z,22.80
2023-04-17T09:49:10.295Z,23.70
2023-04-17T09:51:38.430Z,22.67
2023-04-17T09:54:10.115Z,23.93
2023-04-17T09:56:38.303Z,22.50
2023-04-17T09:59:07.031Z,22.50
2023-04-17T10:01:36.266Z,23.93
2023-04-17T10:04:05.042Z,23.50
2023-04-17T10:06:34.292Z,23.13
2023-04-17T10:09:04.134Z,23.20
2023-04-17T10:11:36.819Z,23.53
2023-04-17T10:14:22.260Z,22.63
2023-04-17T10:16:50.719Z,24.87
2023-04-17T10:19:32.716Z,24.60
2023-04-17T10:22:21.008Z,24.70
2023-04-17T10:25:16.009Z,23.93
2023-04-17T10:27:46.514Z,24.73
2023-04-17T10:30:15.112Z,26.07
2023-04-17T10:32:45.851Z,25.63
2023-04-17T10:35:19.770Z,24.70
2023-04-17T10:37:49.897Z,25.67
2023-04-17T10:40:22.912Z,25.87
2023-04-17T10:43:18.089Z,25.03
2023-04-17T10:46:06.713Z,23.47
2023-04-17T10:48:53.289Z,24.57
2023-04-17T10:51:29.498Z,23.30
2023-04-17T10:53:58.662Z,24.23
2023-04-17T10:56:28.076Z,25.40
2023-04-17T10:59:00.180Z,24.20
2023-04-17T11:01:37.503Z,22.20
2023-04-17T11:04:06.701Z,20.97
2023-04-17T11:06:38.401Z,23.13
2023-04-17T11:09:10.788Z,23.00
2023-04-17T11:11:45.305Z,22.87
2023-04-17T11:14:17.953Z,21.67
2023-04-17T11:16:48.314Z,21.30
2023-04-17T11:19:26.438Z,22.07
2023-04-17T11:21:57.448Z,23.47
2023-04-17T11:24:31.978Z,22.50
2023-04-17T11:27:01.384Z,21.27
2023-04-17T11:29:28.835Z,22.37
2023-04-17T11:31:57.778Z,21.93
2023-04-17T11:34:27.130Z,23.17
2023-04-17T11:36:59.721Z,23.37
2023-04-17T11:39:30.657Z,21.73
2023-04-17T11:41:58.395Z,21.87
2023-04-17T11:44:26.901Z,21.20
2023-04-17T11:46:56.230Z,20.83
2023-04-17T11:49:33.098Z,19.83
2023-04-17T11:52:01.923Z,18.73
2023-04-17T11:54:40.072Z,19.53
2023-04-17T11:57:14.468Z,19.63
2023-04-17T11:59:43.152Z,18.07
2023-04-17T12:02:10.744Z,18.33
2023-04-17T12:04:40.030Z,18.30
2023-04-17T12:07:08.692Z,18.60
2023-04-17T12:09:36.927Z,18.57
2023-04-17T12:12:08.096Z,19.70
2023-04-17T12:14:35.969Z,18.27
2023-04-17T12:17:03.639Z,19.67
2023-04-17T12:19:32.269Z,20.50
2023-04-17T12:21:59.992Z,18.80
2023-04-17T12:24:27.625Z,20.27
2023-04-17T12:26:54.968Z,19.43
2023-04-17T12:29:32.680Z,20.93
2023-04-17T12:32:10.968Z,20.47
2023-04-17T12:34:38.613Z,21.30
2023-04-17T12:37:06.164Z,23.63
2023-04-17T12:39:33.617Z,23.80
2023-04-17T12:42:00.948Z,23.13
2023-04-17T12:44:28.239Z,21.00
2023-04-17T12:46:55.641Z,23.43
2023-04-17T12:49:24.044Z,23.53
2023-04-17T12:51:51.722Z,23.37
2023-04-17T12:54:19.593Z,27.00
2023-04-17T12:56:47.327Z,25.00
2023-04-17T12:59:14.698Z,25.93
2023-04-17T13:01:42.930Z,22.57
2023-04-17T13:04:10.450Z,22.43
2023-04-17T13:06:38.137Z,23.37
2023-04-17T13:09:05.567Z,23.90
2023-04-17T13:11:32.980Z,24.33
2023-04-17T13:14:00.254Z,23.50
2023-04-17T13:16:27.596Z,22.87
2023-04-17T13:18:55.185Z,24.50
2023-04-17T13:21:22.476Z,23.50
2023-04-17T13:23:49.683Z,24.37
2023-04-17T13:26:16.969Z,23.27
2023-04-17T13:28:44.628Z,24.07
2023-04-17T13:31:13.456Z,24.63
2023-04-17T13:33:40.971Z,22.93
2023-04-17T13:36:08.447Z,23.20
2023-04-17T13:38:35.959Z,23.77
2023-04-17T13:41:03.283Z,21.87
2023-04-17T13:43:30.506Z,23.13
2023-04-17T13:45:57.866Z,21.87
2023-04-17T13:48:25.145Z,21.27
2023-04-17T13:50:52.390Z,23.07
2023-04-17T13:53:20.461Z,22.10
2023-04-17T13:55:48.690Z,21.50
2023-04-17T13:58:16.534Z,19.13
2023-04-17T14:00:47.980Z,20.27
2023-04-17T14:03:15.401Z,19.77
2023-04-17T14:05:43.167Z,20.50
2023-04-17T14:08:10.722Z,20.70
2023-04-17T14:10:37.984Z,19.90
2023-04-17T14:13:06.084Z,19.63
2023-04-17T14:15:33.635Z,20.40
2023-04-17T14:18:00.920Z,20.47
2023-04-17T14:20:28.598Z,20.30
2023-04-17T14:22:56.042Z,20.70
2023-04-17T14:25:23.316Z,20.40
2023-04-17T14:27:52.371Z,20.30
2023-04-17T14:30:19.697Z,19.97
2023-04-17T14:32:47.466Z,20.70
2023-04-17T14:35:14.888Z,22.73
2023-04-17T14:37:42.690Z,20.40
2023-04-17T14:40:10.490Z,21.57
2023-04-17T14:42:53.061Z,20.23
2023-04-17T14:45:21.218Z,19.07
2023-04-17T14:47:48.641Z,18.60
2023-04-17T14:50:16.617Z,20.27
2023-04-17T14:52:46.353Z,19.63
2023-04-17T14:55:14.314Z,20.70
2023-04-17T14:57:41.708Z,20.77
2023-04-17T15:00:10.122Z,19.63
2023-04-17T15:02:39.475Z,19.33
2023-04-17T15:05:07.444Z,20.90
2023-04-17T15:07:34.914Z,15.83
2023-04-17T15:10:02.279Z,14.17
2023-04-17T15:12:29.678Z,13.33
2023-04-17T15:14:57.309Z,13.87
2023-04-17T15:17:24.925Z,13.00
2023-04-17T15:19:52.349Z,12.87
2023-04-17T15:22:19.607Z,10.67
2023-04-17T15:24:46.972Z,11.47
2023-04-17T15:27:14.300Z,12.17
2023-04-17T15:29:41.934Z,10.50
2023-04-17T15:32:09.449Z,12.00
2023-04-17T15:34:36.885Z,12.23
2023-04-17T15:37:07.324Z,10.20
2023-04-17T15:39:39.135Z,10.80
2023-04-17T15:42:09.938Z,10.20
2023-04-17T15:44:37.899Z,10.93
2023-04-17T15:47:06.978Z,11.53
2023-04-17T15:49:34.679Z,16.17
2023-04-17T15:52:03.271Z,15.27
2023-04-17T15:54:32.610Z,15.13
2023-04-17T15:57:00.142Z,11.50
2023-04-17T15:59:27.609Z,11.03
2023-04-17T16:01:55.015Z,13.50
2023-04-17T16:04:22.901Z,10.87
2023-04-17T16:06:50.761Z,13.20
2023-04-17T16:09:20.255Z,17.30
2023-04-17T16:11:49.439Z,13.43
2023-04-17T16:14:16.940Z,14.63
2023-04-17T16:16:44.561Z,13.83
2023-04-17T16:19:12.755Z,14.63
2023-04-17T16:21:40.164Z,14.57
2023-04-17T16:24:07.607Z,14.20
2023-04-17T16:26:35.043Z,15.43
2023-04-17T16:29:02.282Z,16.70
2023-04-17T16:31:29.653Z,20.83
2023-04-17T16:33:56.915Z,21.33
2023-04-17T16:36:24.299Z,18.43
2023-04-17T16:38:51.544Z,16.13
2023-04-17T16:41:18.941Z,17.60
2023-04-17T16:43:46.498Z,16.97
2023-04-17T16:46:23.817Z,16.40
2023-04-17T16:48:56.076Z,17.93
2023-04-17T16:51:24.892Z,19.90
2023-04-17T16:53:52.337Z,18.23
2023-04-17T16:56:19.818Z,17.83
2023-04-17T16:58:47.156Z,17.17
2023-04-17T17:01:15.092Z,20.87
2023-04-17T17:03:43.999Z,15.33
2023-04-17T17:06:11.547Z,18.93
2023-04-17T17:08:39.332Z,22.87
2023-04-17T17:11:06.653Z,14.47
2023-04-17T17:13:34.037Z,13.00
2023-04-17T17:16:01.476Z,13.37
2023-04-17T17:18:28.799Z,13.40
2023-04-17T17:20:57.630Z,14.10
2023-04-17T17:23:25.840Z,13.33
2023-04-17T17:25:53.273Z,12.90
2023-04-17T17:28:20.604Z,14.43
2023-04-17T17:30:48.777Z,12.50
2023-04-17T17:33:17.261Z,13.27
2023-04-17T17:35:44.795Z,15.40
2023-04-17T17:38:12.303Z,14.67
2023-04-17T17:40:39.681Z,12.57
2023-04-17T17:43:07.109Z,10.97
2023-04-17T17:45:34.559Z,11.43
2023-04-17T17:48:01.974Z,11.00
2023-04-17T17:50:29.377Z,11.23
2023-04-17T17:52:58.677Z,10.90
2023-04-17T17:55:26.387Z,11.63
2023-04-17T17:57:53.756Z,10.43
2023-04-17T18:00:22.793Z,10.23
2023-04-17T18:02:50.282Z,10.60
2023-04-17T18:05:18.396Z,11.37
2023-04-17T18:07:46.379Z,28.50
2023-04-17T18:10:13.758Z,18.43
2023-04-17T18:12:41.231Z,21.43
2023-04-17T18:15:09.509Z,21.10
2023-04-17T18:17:37.000Z,22.97
2023-04-17T18:20:05.869Z,22.70
2023-04-17T18:22:38.393Z,18.07
2023-04-17T18:25:09.225Z,15.13
2023-04-17T18:27:37.081Z,13.97
2023-04-17T18:30:06.228Z,13.80
2023-04-17T18:32:34.248Z,14.47
2023-04-17T18:35:02.675Z,14.10
2023-04-17T18:37:30.521Z,15.40
2023-04-17T18:39:57.975Z,14.50
2023-04-17T18:42:25.327Z,15.40
2023-04-17T18:44:53.301Z,16.40
2023-04-17T18:47:20.790Z,16.70
2023-04-17T18:49:48.242Z,15.20
2023-04-17T18:52:18.974Z,19.33
2023-04-17T18:54:48.235Z,19.50
2023-04-17T18:57:15.726Z,18.37
2023-04-17T18:59:43.423Z,44.00
2023-04-17T19:02:10.734Z,26.70
2023-04-17T19:04:38.095Z,28.07
2023-04-17T19:07:05.691Z,25.97
2023-04-17T19:09:33.212Z,26.17
2023-04-17T19:12:00.535Z,22.07
2023-04-17T19:14:29.045Z,24.40
2023-04-17T19:16:56.295Z,22.87
2023-04-17T19:19:24.227Z,22.40
2023-04-17T19:21:51.640Z,23.33
2023-04-17T19:24:18.919Z,24.60
2023-04-17T19:26:46.529Z,23.87
2023-04-17T19:29:17.375Z,27.30
2023-04-17T19:31:45.469Z,25.80
2023-04-17T19:34:12.992Z,27.13
2023-04-17T19:36:41.182Z,23.43
2023-04-17T19:39:08.424Z,25.77
2023-04-17T19:41:35.643Z,25.53
2023-04-17T19:44:03.125Z,26.37
2023-04-17T19:46:31.233Z,26.50
2023-04-17T19:48:58.643Z,25.80
2023-04-17T19:51:27.036Z,32.17
2023-04-17T19:53:54.403Z,27.07
2023-04-17T19:56:21.935Z,25.03
2023-04-17T19:58:50.218Z,24.47
2023-04-17T20:01:17.641Z,25.53
2023-04-17T20:03:45.862Z,23.60
2023-04-17T20:06:14.718Z,24.80
2023-04-17T20:08:42.011Z,25.53
2023-04-17T20:11:13.900Z,23.67
2023-04-17T20:13:41.258Z,25.27
2023-04-17T20:16:08.905Z,23.40
2023-04-17T20:18:37.635Z,25.23
2023-04-17T20:21:08.950Z,24.80
2023-04-17T20:23:36.278Z,25.93
2023-04-17T20:26:03.609Z,25.93
2023-04-17T20:28:31.013Z,26.20
2023-04-17T20:30:58.570Z,25.43
2023-04-17T20:33:25.913Z,25.13
2023-04-17T20:35:53.290Z,26.03
2023-04-17T20:38:20.735Z,26.67
2023-04-17T20:40:48.004Z,26.13
2023-04-17T20:43:15.253Z,26.87
2023-04-17T20:45:43.212Z,26.63
2023-04-17T20:48:10.528Z,26.70
2023-04-17T20:50:37.818Z,25.20
2023-04-17T20:53:05.136Z,25.53
2023-04-17T20:55:32.442Z,27.03
2023-04-17T20:57:59.704Z,26.70
2023-04-17T21:00:27.200Z,28.50
2023-04-17T21:02:54.632Z,25.90
2023-04-17T21:05:22.105Z,25.33
2023-04-17T21:07:51.427Z,25.80
2023-04-17T21:26:36.838Z,25.50
2023-04-17T21:29:04.592Z,24.53
2023-04-17T21:31:31.980Z,24.00
2023-04-17T21:33:59.504Z,24.47
2023-04-17T21:36:28.440Z,24.47
2023-04-17T21:38:56.032Z,23.17
2023-04-17T21:41:23.418Z,24.40
2023-04-17T21:43:50.665Z,23.27
2023-04-17T21:46:18.077Z,24.27
2023-04-17T21:48:45.680Z,22.93
2023-04-17T21:51:12.912Z,24.33
2023-04-17T21:53:40.359Z,23.80
2023-04-17T21:56:08.676Z,23.60
2023-04-17T21:58:36.070Z,23.20
2023-04-17T22:01:04.304Z,23.27
2023-04-17T22:03:31.605Z,23.03
2023-04-17T22:05:59.653Z,22.90
2023-04-17T22:08:27.272Z,22.37
2023-04-17T22:10:54.625Z,23.93
2023-04-17T22:13:21.996Z,23.50
2023-04-17T22:15:49.688Z,20.60
2023-04-17T22:18:16.967Z,19.47
2023-04-17T22:21:40.471Z,18.83
2023-04-17T22:25:04.144Z,17.50
2023-04-17T22:28:27.399Z,16.20
2023-04-17T22:31:50.611Z,15.97
2023-04-17T22:35:14.268Z,15.53
2023-04-17T22:38:37.927Z,16.30
2023-04-17T22:42:01.483Z,14.50
2023-04-17T22:45:25.256Z,15.87
2023-04-17T22:48:48.372Z,15.13
2023-04-17T22:52:12.004Z,14.27
2023-04-17T22:55:35.170Z,13.57
2023-04-17T22:58:58.248Z,14.93
2023-04-17T23:02:21.872Z,15.13
2023-04-17T23:05:45.116Z,16.20
2023-04-17T23:09:09.169Z,15.10
2023-04-17T23:11:36.543Z,16.83
2023-04-17T23:14:04.007Z,17.93
2023-04-17T23:16:31.502Z,16.53
2023-04-17T23:18:59.112Z,15.73
2023-04-17T23:21:26.648Z,15.80
2023-04-17T23:23:54.149Z,15.03
2023-04-17T23:26:21.668Z,14.70
2023-04-17T23:28:49.158Z,15.47
2023-04-17T23:31:16.498Z,14.87
2023-04-17T23:33:44.055Z,13.37
2023-04-17T23:36:11.857Z,12.97
2023-04-17T23:38:39.818Z,13.90
2023-04-17T23:41:07.077Z,13.47
2023-04-17T23:43:34.472Z,12.77
2023-04-17T23:46:01.782Z,13.63
2023-04-17T23:48:29.097Z,13.87
2023-04-17T23:50:56.783Z,13.87
2023-04-17T23:53:24.146Z,14.03
2023-04-17T23:55:52.124Z,16.43
2023-04-17T23:58:19.408Z,14.90
